createdAt,value
2019-03-22T00:00:25.724Z,12.87
2019-03-22T00:00:51.835Z,12.83
2019-03-22T00:01:17.990Z,12.83
2019-03-22T00:01:44.379Z,12.75
2019-03-22T00:02:10.479Z,12.8
2019-03-22T00:02:36.946Z,12.75
2019-03-22T00:03:03.056Z,12.68
2019-03-22T00:03:29.343Z,12.64
2019-03-22T00:03:55.450Z,12.61
2019-03-22T00:04:21.712Z,12.72
2019-03-22T00:04:48.008Z,12.75
2019-03-22T00:05:14.328Z,12.65
2019-03-22T00:05:40.627Z,12.68
2019-03-22T00:06:06.674Z,12.61
2019-03-22T00:06:32.779Z,12.58
2019-03-22T00:06:58.884Z,12.68
2019-03-22T00:07:25.025Z,12.75
2019-03-22T00:07:51.361Z,12.61
2019-03-22T00:08:17.583Z,12.67
2019-03-22T00:08:44.228Z,12.73
2019-03-22T00:09:10.579Z,12.67
2019-03-22T00:09:36.900Z,12.62
2019-03-22T00:10:03.009Z,12.73
2019-03-22T00:10:29.195Z,12.6
2019-03-22T00:10:55.524Z,12.55
2019-03-22T00:11:21.675Z,12.67
2019-03-22T00:11:47.780Z,12.6
2019-03-22T00:12:14.859Z,12.75
2019-03-22T00:12:41.204Z,12.62
2019-03-22T00:13:07.343Z,12.54
2019-03-22T00:13:33.444Z,12.6
2019-03-22T00:13:59.554Z,12.6
2019-03-22T00:14:25.693Z,12.61
2019-03-22T00:14:51.795Z,12.62
2019-03-22T00:15:17.900Z,12.62
2019-03-22T00:15:44.005Z,12.62
2019-03-22T00:16:10.143Z,12.64
2019-03-22T00:16:36.305Z,12.58
2019-03-22T00:17:02.417Z,12.62
2019-03-22T00:17:28.530Z,12.61
2019-03-22T00:17:54.638Z,12.7
2019-03-22T00:18:20.740Z,12.65
2019-03-22T00:18:46.856Z,12.55
2019-03-22T00:19:12.964Z,12.67
2019-03-22T00:19:39.067Z,12.67
2019-03-22T00:20:05.388Z,12.58
2019-03-22T00:20:31.495Z,12.58
2019-03-22T00:20:57.603Z,12.6
2019-03-22T00:21:23.707Z,12.6
2019-03-22T00:21:49.817Z,12.73
2019-03-22T00:22:15.923Z,12.67
2019-03-22T00:22:42.063Z,12.62
2019-03-22T00:23:08.167Z,12.64
2019-03-22T00:23:34.278Z,12.73
2019-03-22T00:24:00.411Z,12.61
2019-03-22T00:24:26.540Z,12.6
2019-03-22T00:24:52.650Z,12.72
2019-03-22T00:25:18.790Z,12.68
2019-03-22T00:25:44.886Z,12.7
2019-03-22T00:26:11.052Z,12.6
2019-03-22T00:26:37.875Z,12.61
2019-03-22T00:27:15.561Z,12.68
2019-03-22T00:27:31.137Z,12.58
2019-03-22T00:27:57.242Z,12.68
2019-03-22T00:28:23.425Z,12.68
2019-03-22T00:28:49.530Z,12.67
2019-03-22T00:29:15.639Z,12.55
2019-03-22T00:29:41.753Z,12.54
2019-03-22T00:30:07.861Z,12.58
2019-03-22T00:30:33.975Z,12.62
2019-03-22T00:31:00.110Z,12.62
2019-03-22T00:31:26.321Z,12.62
2019-03-22T00:31:52.392Z,12.65
2019-03-22T00:32:18.517Z,12.65
2019-03-22T00:32:44.642Z,12.65
2019-03-22T00:33:10.759Z,12.62
2019-03-22T00:33:36.859Z,12.68
2019-03-22T00:34:02.978Z,12.53
2019-03-22T00:34:29.091Z,12.53
2019-03-22T00:34:55.185Z,12.5
2019-03-22T00:35:21.329Z,12.58
2019-03-22T00:35:47.436Z,12.53
2019-03-22T00:36:13.544Z,12.54
2019-03-22T00:36:39.658Z,12.61
2019-03-22T00:37:05.794Z,12.61
2019-03-22T00:37:31.900Z,12.64
2019-03-22T00:37:58.005Z,12.58
2019-03-22T00:38:24.115Z,12.67
2019-03-22T00:38:50.252Z,12.7
2019-03-22T00:39:16.404Z,12.53
2019-03-22T00:39:42.468Z,12.57
2019-03-22T00:40:08.609Z,12.5
2019-03-22T00:40:34.712Z,12.58
2019-03-22T00:41:00.818Z,12.47
2019-03-22T00:41:26.929Z,12.49
2019-03-22T00:41:53.032Z,12.45
2019-03-22T00:42:19.167Z,12.47
2019-03-22T00:42:45.292Z,12.43
2019-03-22T00:43:11.399Z,12.42
2019-03-22T00:43:37.509Z,12.42
2019-03-22T00:44:03.613Z,12.5
2019-03-22T00:44:29.720Z,12.49
2019-03-22T00:44:55.827Z,12.45
2019-03-22T00:45:21.933Z,12.46
2019-03-22T00:45:48.037Z,12.5
2019-03-22T00:46:14.176Z,12.45
2019-03-22T00:46:40.282Z,12.53
2019-03-22T00:47:06.394Z,12.49
2019-03-22T00:47:32.532Z,12.46
2019-03-22T00:47:58.645Z,12.5
2019-03-22T00:48:24.962Z,12.5
2019-03-22T00:48:51.062Z,12.45
2019-03-22T00:49:17.173Z,12.47
2019-03-22T00:49:43.318Z,12.47
2019-03-22T00:50:09.426Z,12.47
2019-03-22T00:50:35.535Z,12.49
2019-03-22T00:51:01.665Z,12.5
2019-03-22T00:51:27.783Z,12.46
2019-03-22T00:51:53.890Z,12.43
2019-03-22T00:52:20.023Z,12.45
2019-03-22T00:52:46.128Z,12.49
2019-03-22T00:53:12.272Z,12.47
2019-03-22T00:53:38.371Z,12.5
2019-03-22T00:54:04.485Z,12.47
2019-03-22T00:54:30.610Z,12.47
2019-03-22T00:54:56.717Z,12.47
2019-03-22T00:55:22.826Z,12.46
2019-03-22T00:55:48.943Z,12.49
2019-03-22T00:56:15.048Z,12.4
2019-03-22T00:56:41.158Z,12.42
2019-03-22T00:57:07.270Z,12.53
2019-03-22T00:57:35.361Z,12.46
2019-03-22T00:58:01.467Z,12.47
2019-03-22T00:58:27.603Z,12.5
2019-03-22T00:58:53.708Z,12.45
2019-03-22T00:59:19.818Z,12.39
2019-03-22T00:59:45.925Z,12.49
2019-03-22T01:00:12.036Z,12.47
2019-03-22T01:00:38.144Z,12.46
2019-03-22T01:01:04.273Z,12.47
2019-03-22T01:01:30.384Z,12.47
2019-03-22T01:01:56.523Z,12.5
2019-03-22T01:02:22.627Z,12.55
2019-03-22T01:02:48.770Z,12.49
2019-03-22T01:03:14.877Z,12.47
2019-03-22T01:03:40.993Z,12.47
2019-03-22T01:04:07.150Z,12.45
2019-03-22T01:04:33.291Z,12.42
2019-03-22T01:04:59.393Z,12.47
2019-03-22T01:05:25.532Z,12.47
2019-03-22T01:05:51.639Z,12.46
2019-03-22T01:06:17.744Z,12.43
2019-03-22T01:06:43.853Z,12.45
2019-03-22T01:07:09.962Z,12.46
2019-03-22T01:07:36.074Z,12.53
2019-03-22T01:08:03.688Z,12.54
2019-03-22T01:08:29.829Z,12.54
2019-03-22T01:08:55.932Z,12.55
2019-03-22T01:09:22.046Z,12.49
2019-03-22T01:09:48.155Z,12.62
2019-03-22T01:10:14.305Z,12.64
2019-03-22T01:10:40.431Z,12.57
2019-03-22T01:11:06.542Z,12.5
2019-03-22T01:11:32.646Z,12.58
2019-03-22T01:11:58.759Z,12.58
2019-03-22T01:12:24.905Z,12.53
2019-03-22T01:12:51.017Z,12.53
2019-03-22T01:13:17.122Z,12.49
2019-03-22T01:13:43.229Z,12.53
2019-03-22T01:14:09.337Z,12.55
2019-03-22T01:14:35.480Z,12.47
2019-03-22T01:15:01.616Z,12.43
2019-03-22T01:15:27.726Z,12.53
2019-03-22T01:15:53.830Z,12.49
2019-03-22T01:16:19.940Z,12.42
2019-03-22T01:16:46.044Z,12.28
2019-03-22T01:17:12.158Z,12.4
2019-03-22T01:17:38.257Z,12.47
2019-03-22T01:18:04.394Z,12.47
2019-03-22T01:18:30.507Z,12.42
2019-03-22T01:18:56.613Z,12.45
2019-03-22T01:19:22.753Z,12.43
2019-03-22T01:19:48.866Z,12.42
2019-03-22T01:20:14.994Z,12.32
2019-03-22T01:20:41.136Z,12.4
2019-03-22T01:21:07.230Z,12.32
2019-03-22T01:21:33.392Z,12.35
2019-03-22T01:21:59.492Z,12.32
2019-03-22T01:22:25.603Z,12.27
2019-03-22T01:22:51.710Z,12.31
2019-03-22T01:23:17.877Z,12.25
2019-03-22T01:23:43.985Z,12.24
2019-03-22T01:24:10.544Z,12.22
2019-03-22T01:24:36.657Z,12.29
2019-03-22T01:25:02.757Z,12.35
2019-03-22T01:25:28.867Z,12.2
2019-03-22T01:25:54.983Z,12.27
2019-03-22T01:26:21.088Z,12.22
2019-03-22T01:26:47.196Z,12.4
2019-03-22T01:27:13.332Z,12.13
2019-03-22T01:27:41.641Z,12.15
2019-03-22T01:28:07.565Z,12.2
2019-03-22T01:28:33.673Z,12.24
2019-03-22T01:28:59.788Z,12.22
2019-03-22T01:29:25.900Z,12.2
2019-03-22T01:29:52.041Z,12.18
2019-03-22T01:30:18.169Z,12.27
2019-03-22T01:30:44.283Z,12.24
2019-03-22T01:31:10.388Z,12.22
2019-03-22T01:31:36.497Z,12.17
2019-03-22T01:32:02.608Z,12.25
2019-03-22T01:32:28.774Z,12.28
2019-03-22T01:32:54.908Z,12.27
2019-03-22T01:33:21.022Z,12.28
2019-03-22T01:33:47.128Z,12.35
2019-03-22T01:34:13.235Z,12.28
2019-03-22T01:34:39.350Z,12.31
2019-03-22T01:35:05.547Z,12.36
2019-03-22T01:35:31.690Z,12.36
2019-03-22T01:35:57.795Z,12.36
2019-03-22T01:36:23.906Z,12.25
2019-03-22T01:36:50.007Z,12.32
2019-03-22T01:37:16.125Z,12.4
2019-03-22T01:37:42.229Z,12.32
2019-03-22T01:38:08.335Z,12.37
2019-03-22T01:38:34.450Z,12.37
2019-03-22T01:39:00.552Z,12.39
2019-03-22T01:39:26.686Z,12.4
2019-03-22T01:39:52.800Z,12.42
2019-03-22T01:40:18.960Z,12.39
2019-03-22T01:40:45.070Z,12.27
2019-03-22T01:41:11.184Z,12.32
2019-03-22T01:41:37.282Z,12.25
2019-03-22T01:42:03.395Z,12.29
2019-03-22T01:42:29.499Z,12.24
2019-03-22T01:42:55.616Z,12.25
2019-03-22T01:43:21.723Z,12.28
2019-03-22T01:43:47.823Z,12.22
2019-03-22T01:44:13.988Z,12.25
2019-03-22T01:44:40.133Z,12.24
2019-03-22T01:45:06.301Z,12.21
2019-03-22T01:45:32.399Z,12.24
2019-03-22T01:45:58.541Z,12.22
2019-03-22T01:46:24.646Z,12.17
2019-03-22T01:46:50.759Z,12.25
2019-03-22T01:47:16.866Z,12.24
2019-03-22T01:47:42.977Z,12.28
2019-03-22T01:48:09.135Z,12.24
2019-03-22T01:48:35.340Z,12.22
2019-03-22T01:49:01.445Z,12.17
2019-03-22T01:49:27.561Z,12.09
2019-03-22T01:49:53.701Z,12.07
2019-03-22T01:50:19.839Z,12.09
2019-03-22T01:50:45.940Z,12.2
2019-03-22T01:51:12.048Z,12.09
2019-03-22T01:51:38.162Z,12.17
2019-03-22T01:52:04.265Z,12.09
2019-03-22T01:52:30.378Z,12.07
2019-03-22T01:52:56.485Z,12.09
2019-03-22T01:53:22.591Z,12.07
2019-03-22T01:53:48.703Z,12.07
2019-03-22T01:54:14.813Z,12.09
2019-03-22T01:54:40.928Z,11.95
2019-03-22T01:55:07.036Z,12
2019-03-22T01:55:33.152Z,11.95
2019-03-22T01:55:59.281Z,11.97
2019-03-22T01:56:25.396Z,11.9
2019-03-22T01:56:51.496Z,11.87
2019-03-22T01:57:17.614Z,11.9
2019-03-22T01:57:52.214Z,11.87
2019-03-22T01:58:10.844Z,11.87
2019-03-22T01:58:36.979Z,11.81
2019-03-22T01:59:03.092Z,11.75
2019-03-22T01:59:29.230Z,11.77
2019-03-22T01:59:55.341Z,11.69
2019-03-22T02:00:21.445Z,11.69
2019-03-22T02:00:47.554Z,11.7
2019-03-22T02:01:13.691Z,11.7
2019-03-22T02:01:39.793Z,11.77
2019-03-22T02:02:05.896Z,11.72
2019-03-22T02:02:32.010Z,11.78
2019-03-22T02:02:58.113Z,11.75
2019-03-22T02:03:24.220Z,11.75
2019-03-22T02:03:50.329Z,11.77
2019-03-22T02:04:16.446Z,11.77
2019-03-22T02:04:42.540Z,11.8
2019-03-22T02:05:08.651Z,11.83
2019-03-22T02:05:34.766Z,11.8
2019-03-22T02:06:00.866Z,11.73
2019-03-22T02:06:27.004Z,11.68
2019-03-22T02:06:53.110Z,11.69
2019-03-22T02:07:19.218Z,11.7
2019-03-22T02:07:45.331Z,11.73
2019-03-22T02:08:11.461Z,11.81
2019-03-22T02:08:37.566Z,11.8
2019-03-22T02:09:03.711Z,11.83
2019-03-22T02:09:29.819Z,11.86
2019-03-22T02:09:55.925Z,11.86
2019-03-22T02:10:22.038Z,11.88
2019-03-22T02:10:48.142Z,11.87
2019-03-22T02:11:14.263Z,11.94
2019-03-22T02:11:40.431Z,11.91
2019-03-22T02:12:06.540Z,11.9
2019-03-22T02:12:32.676Z,11.91
2019-03-22T02:12:58.786Z,11.97
2019-03-22T02:13:25.882Z,11.95
2019-03-22T02:13:52.030Z,11.88
2019-03-22T02:14:18.253Z,11.88
2019-03-22T02:14:44.317Z,11.95
2019-03-22T02:15:10.431Z,11.88
2019-03-22T02:15:36.558Z,11.9
2019-03-22T02:16:02.677Z,11.88
2019-03-22T02:16:28.807Z,11.9
2019-03-22T02:16:54.930Z,11.87
2019-03-22T02:17:21.060Z,11.86
2019-03-22T02:17:47.165Z,11.94
2019-03-22T02:18:13.276Z,11.86
2019-03-22T02:18:39.386Z,11.91
2019-03-22T02:19:05.492Z,11.91
2019-03-22T02:19:31.626Z,11.95
2019-03-22T02:19:57.743Z,11.88
2019-03-22T02:20:23.846Z,11.88
2019-03-22T02:20:49.958Z,11.9
2019-03-22T02:21:16.089Z,11.9
2019-03-22T02:21:42.237Z,11.94
2019-03-22T02:22:08.345Z,11.95
2019-03-22T02:22:34.477Z,11.97
2019-03-22T02:23:00.622Z,11.95
2019-03-22T02:23:26.786Z,11.99
2019-03-22T02:23:52.898Z,11.99
2019-03-22T02:24:19.011Z,11.97
2019-03-22T02:24:45.111Z,11.99
2019-03-22T02:25:11.219Z,12
2019-03-22T02:25:37.329Z,11.99
2019-03-22T02:26:03.435Z,11.99
2019-03-22T02:26:29.543Z,12.03
2019-03-22T02:26:55.705Z,11.95
2019-03-22T02:27:21.813Z,12.02
2019-03-22T02:27:47.919Z,12.02
2019-03-22T02:28:15.075Z,12
2019-03-22T02:28:41.183Z,11.94
2019-03-22T02:29:07.275Z,11.87
2019-03-22T02:29:33.388Z,11.84
2019-03-22T02:30:00.360Z,11.86
2019-03-22T02:30:26.569Z,11.81
2019-03-22T02:30:52.680Z,11.8
2019-03-22T02:31:18.785Z,11.7
2019-03-22T02:31:44.889Z,11.73
2019-03-22T02:32:11.062Z,11.77
2019-03-22T02:32:37.203Z,11.77
2019-03-22T02:33:03.344Z,11.77
2019-03-22T02:33:29.516Z,11.77
2019-03-22T02:33:55.674Z,11.83
2019-03-22T02:34:21.835Z,11.72
2019-03-22T02:34:48.013Z,11.86
2019-03-22T02:35:27.309Z,11.83
2019-03-22T02:35:41.266Z,11.81
2019-03-22T02:36:07.444Z,11.86
2019-03-22T02:36:33.587Z,11.81
2019-03-22T02:36:59.733Z,11.8
2019-03-22T02:37:25.866Z,11.81
2019-03-22T02:37:52.000Z,11.87
2019-03-22T02:38:18.111Z,11.84
2019-03-22T02:38:44.303Z,11.78
2019-03-22T02:39:10.473Z,11.81
2019-03-22T02:39:37.014Z,11.75
2019-03-22T02:40:03.300Z,11.78
2019-03-22T02:40:29.407Z,11.84
2019-03-22T02:40:55.552Z,11.88
2019-03-22T02:41:21.740Z,11.81
2019-03-22T02:41:47.858Z,11.84
2019-03-22T02:42:14.010Z,11.87
2019-03-22T02:42:40.136Z,11.86
2019-03-22T02:43:06.301Z,11.86
2019-03-22T02:43:32.442Z,11.86
2019-03-22T02:43:59.545Z,11.84
2019-03-22T02:44:25.684Z,11.87
2019-03-22T02:44:51.793Z,11.91
2019-03-22T02:45:17.924Z,11.94
2019-03-22T02:45:44.081Z,11.94
2019-03-22T02:46:10.217Z,11.88
2019-03-22T02:46:36.414Z,11.99
2019-03-22T02:47:02.576Z,11.94
2019-03-22T02:47:28.710Z,11.9
2019-03-22T02:47:54.846Z,11.9
2019-03-22T02:48:21.008Z,11.87
2019-03-22T02:48:47.111Z,11.8
2019-03-22T02:49:13.245Z,11.86
2019-03-22T02:49:39.382Z,11.77
2019-03-22T02:50:17.075Z,11.77
2019-03-22T02:50:33.835Z,11.75
2019-03-22T02:51:00.964Z,11.73
2019-03-22T02:51:27.098Z,11.81
2019-03-22T02:51:53.210Z,11.77
2019-03-22T02:52:19.345Z,11.77
2019-03-22T02:52:45.459Z,11.73
2019-03-22T02:53:11.641Z,11.81
2019-03-22T02:53:37.785Z,11.77
2019-03-22T02:54:03.910Z,11.78
2019-03-22T02:54:30.094Z,11.77
2019-03-22T02:54:56.206Z,11.77
2019-03-22T02:55:22.373Z,11.77
2019-03-22T02:55:48.657Z,11.69
2019-03-22T02:56:15.439Z,11.77
2019-03-22T02:56:41.430Z,11.72
2019-03-22T02:57:07.567Z,11.73
2019-03-22T02:57:33.696Z,11.69
2019-03-22T02:57:59.865Z,11.75
2019-03-22T02:58:28.948Z,11.73
2019-03-22T02:58:55.053Z,11.63
2019-03-22T02:59:21.166Z,11.65
2019-03-22T02:59:47.311Z,11.63
2019-03-22T03:00:13.439Z,11.72
2019-03-22T03:00:39.566Z,11.78
2019-03-22T03:01:05.699Z,11.73
2019-03-22T03:01:31.839Z,11.68
2019-03-22T03:01:57.945Z,11.69
2019-03-22T03:02:24.089Z,11.57
2019-03-22T03:02:50.224Z,11.69
2019-03-22T03:03:16.394Z,11.68
2019-03-22T03:03:42.498Z,11.65
2019-03-22T03:04:08.706Z,11.73
2019-03-22T03:04:34.844Z,11.63
2019-03-22T03:05:00.979Z,11.6
2019-03-22T03:05:27.124Z,11.6
2019-03-22T03:05:53.304Z,11.69
2019-03-22T03:06:19.436Z,11.68
2019-03-22T03:06:45.592Z,11.66
2019-03-22T03:07:11.703Z,11.68
2019-03-22T03:07:37.816Z,11.72
2019-03-22T03:08:03.973Z,11.77
2019-03-22T03:08:30.138Z,11.69
2019-03-22T03:08:56.252Z,11.78
2019-03-22T03:09:22.359Z,11.77
2019-03-22T03:09:48.553Z,11.68
2019-03-22T03:10:14.741Z,11.63
2019-03-22T03:10:40.845Z,11.69
2019-03-22T03:11:06.975Z,11.69
2019-03-22T03:11:33.090Z,11.78
2019-03-22T03:11:59.200Z,11.73
2019-03-22T03:12:25.367Z,11.68
2019-03-22T03:12:51.501Z,11.69
2019-03-22T03:13:17.606Z,11.73
2019-03-22T03:13:43.742Z,11.72
2019-03-22T03:14:09.854Z,11.7
2019-03-22T03:14:35.965Z,11.66
2019-03-22T03:15:02.073Z,11.75
2019-03-22T03:15:28.233Z,11.75
2019-03-22T03:15:54.370Z,11.77
2019-03-22T03:16:20.483Z,11.68
2019-03-22T03:16:46.613Z,11.8
2019-03-22T03:17:12.721Z,11.72
2019-03-22T03:17:38.866Z,11.77
2019-03-22T03:18:04.967Z,11.8
2019-03-22T03:18:31.145Z,11.75
2019-03-22T03:18:57.313Z,11.87
2019-03-22T03:19:23.445Z,11.86
2019-03-22T03:19:49.584Z,11.9
2019-03-22T03:20:15.781Z,11.83
2019-03-22T03:20:41.882Z,11.84
2019-03-22T03:21:08.004Z,11.81
2019-03-22T03:21:34.134Z,11.83
2019-03-22T03:22:00.269Z,11.8
2019-03-22T03:22:26.391Z,11.8
2019-03-22T03:22:52.514Z,11.8
2019-03-22T03:23:18.666Z,11.75
2019-03-22T03:23:44.786Z,11.78
2019-03-22T03:24:10.889Z,11.81
2019-03-22T03:24:37.073Z,11.84
2019-03-22T03:25:03.209Z,11.86
2019-03-22T03:25:29.357Z,11.83
2019-03-22T03:25:55.504Z,11.84
2019-03-22T03:26:21.645Z,11.77
2019-03-22T03:26:47.755Z,11.8
2019-03-22T03:27:13.951Z,11.8
2019-03-22T03:27:40.092Z,11.78
2019-03-22T03:28:06.200Z,11.78
2019-03-22T03:28:36.907Z,11.69
2019-03-22T03:29:00.420Z,11.63
2019-03-22T03:29:26.567Z,11.73
2019-03-22T03:29:52.692Z,11.69
2019-03-22T03:30:18.977Z,11.7
2019-03-22T03:30:45.081Z,11.68
2019-03-22T03:31:11.260Z,11.63
2019-03-22T03:31:37.448Z,11.73
2019-03-22T03:32:03.604Z,11.72
2019-03-22T03:32:29.773Z,11.69
2019-03-22T03:32:55.933Z,11.72
2019-03-22T03:33:22.148Z,11.72
2019-03-22T03:33:48.308Z,11.7
2019-03-22T03:34:14.486Z,11.77
2019-03-22T03:34:40.744Z,11.72
2019-03-22T03:35:06.978Z,11.72
2019-03-22T03:35:33.186Z,11.7
2019-03-22T03:35:59.321Z,11.63
2019-03-22T03:36:25.437Z,11.65
2019-03-22T03:36:51.571Z,11.6
2019-03-22T03:37:17.705Z,11.62
2019-03-22T03:37:43.839Z,11.66
2019-03-22T03:38:09.973Z,11.62
2019-03-22T03:38:36.093Z,11.66
2019-03-22T03:39:02.196Z,11.69
2019-03-22T03:39:28.363Z,11.68
2019-03-22T03:39:54.500Z,11.65
2019-03-22T03:40:20.639Z,11.7
2019-03-22T03:40:46.809Z,11.66
2019-03-22T03:41:12.982Z,11.63
2019-03-22T03:41:39.095Z,11.69
2019-03-22T03:42:05.242Z,11.7
2019-03-22T03:42:31.423Z,11.68
2019-03-22T03:42:57.552Z,11.63
2019-03-22T03:43:23.660Z,11.65
2019-03-22T03:43:49.838Z,11.65
2019-03-22T03:44:15.906Z,11.51
2019-03-22T03:44:42.010Z,11.54
2019-03-22T03:45:08.113Z,11.66
2019-03-22T03:45:34.305Z,11.65
2019-03-22T03:46:00.464Z,11.66
2019-03-22T03:46:26.567Z,11.57
2019-03-22T03:46:52.731Z,11.62
2019-03-22T03:47:19.866Z,11.7
2019-03-22T03:47:46.008Z,11.66
2019-03-22T03:48:12.206Z,11.69
2019-03-22T03:48:38.314Z,11.69
2019-03-22T03:49:04.446Z,11.68
2019-03-22T03:49:30.555Z,11.66
2019-03-22T03:49:56.694Z,11.65
2019-03-22T03:50:22.828Z,11.63
2019-03-22T03:50:48.942Z,11.7
2019-03-22T03:51:15.078Z,11.68
2019-03-22T03:51:41.191Z,11.68
2019-03-22T03:52:07.335Z,11.63
2019-03-22T03:52:33.462Z,11.69
2019-03-22T03:52:59.631Z,11.62
2019-03-22T03:53:25.755Z,11.55
2019-03-22T03:53:51.891Z,11.57
2019-03-22T03:54:18.061Z,11.6
2019-03-22T03:54:44.171Z,11.66
2019-03-22T03:55:10.311Z,11.65
2019-03-22T03:55:36.441Z,11.66
2019-03-22T03:56:02.642Z,11.69
2019-03-22T03:56:28.677Z,11.57
2019-03-22T03:56:54.787Z,11.6
2019-03-22T03:57:20.915Z,11.63
2019-03-22T03:57:47.027Z,11.55
2019-03-22T03:58:13.139Z,11.48
2019-03-22T03:58:51.440Z,11.59
2019-03-22T03:59:08.315Z,11.63
2019-03-22T03:59:34.444Z,11.6
2019-03-22T04:00:00.567Z,11.66
2019-03-22T04:00:26.723Z,11.6
2019-03-22T04:00:52.831Z,11.54
2019-03-22T04:01:18.946Z,11.57
2019-03-22T04:01:45.056Z,11.57
2019-03-22T04:02:11.215Z,11.57
2019-03-22T04:02:37.352Z,11.45
2019-03-22T04:03:03.463Z,11.59
2019-03-22T04:03:29.572Z,11.47
2019-03-22T04:03:55.701Z,11.55
2019-03-22T04:04:21.985Z,11.51
2019-03-22T04:04:48.153Z,11.5
2019-03-22T04:05:14.831Z,11.54
2019-03-22T04:05:40.457Z,11.5
2019-03-22T04:06:06.608Z,11.54
2019-03-22T04:06:32.732Z,11.5
2019-03-22T04:06:58.870Z,11.47
2019-03-22T04:07:24.992Z,11.47
2019-03-22T04:07:51.127Z,11.47
2019-03-22T04:08:17.237Z,11.48
2019-03-22T04:08:43.377Z,11.5
2019-03-22T04:09:09.481Z,11.45
2019-03-22T04:09:35.615Z,11.48
2019-03-22T04:10:01.770Z,11.5
2019-03-22T04:10:27.923Z,11.45
2019-03-22T04:10:54.058Z,11.45
2019-03-22T04:11:20.162Z,11.43
2019-03-22T04:11:46.327Z,11.4
2019-03-22T04:12:12.486Z,11.41
2019-03-22T04:12:38.598Z,11.43
2019-03-22T04:13:04.772Z,11.41
2019-03-22T04:13:30.885Z,11.37
2019-03-22T04:13:56.986Z,11.44
2019-03-22T04:14:23.094Z,11.43
2019-03-22T04:14:49.200Z,11.4
2019-03-22T04:15:15.318Z,11.32
2019-03-22T04:15:41.468Z,11.29
2019-03-22T04:16:07.587Z,11.4
2019-03-22T04:16:33.694Z,11.4
2019-03-22T04:16:59.807Z,11.33
2019-03-22T04:17:25.947Z,11.41
2019-03-22T04:17:52.050Z,11.36
2019-03-22T04:18:18.181Z,11.23
2019-03-22T04:18:44.294Z,11.27
2019-03-22T04:19:10.398Z,11.32
2019-03-22T04:19:36.533Z,11.27
2019-03-22T04:20:02.671Z,11.32
2019-03-22T04:20:28.833Z,11.26
2019-03-22T04:20:54.933Z,11.27
2019-03-22T04:21:21.037Z,11.29
2019-03-22T04:21:47.208Z,11.23
2019-03-22T04:22:13.313Z,11.32
2019-03-22T04:22:40.450Z,11.19
2019-03-22T04:23:06.545Z,11.29
2019-03-22T04:23:32.681Z,11.18
2019-03-22T04:23:58.877Z,11.26
2019-03-22T04:24:25.050Z,11.22
2019-03-22T04:24:51.208Z,11.26
2019-03-22T04:25:17.402Z,11.19
2019-03-22T04:25:43.530Z,11.12
2019-03-22T04:26:09.682Z,11.02
2019-03-22T04:26:35.817Z,11.1
2019-03-22T04:27:01.987Z,11.14
2019-03-22T04:27:28.089Z,11.05
2019-03-22T04:27:54.258Z,10.97
2019-03-22T04:28:20.396Z,11.08
2019-03-22T04:28:46.509Z,11.08
2019-03-22T04:29:15.607Z,11
2019-03-22T04:29:41.779Z,11.05
2019-03-22T04:30:07.911Z,10.97
2019-03-22T04:30:34.021Z,11.04
2019-03-22T04:31:00.128Z,11.02
2019-03-22T04:31:26.262Z,10.86
2019-03-22T04:31:52.385Z,10.92
2019-03-22T04:32:18.538Z,10.84
2019-03-22T04:32:44.647Z,10.93
2019-03-22T04:33:10.856Z,10.82
2019-03-22T04:33:36.997Z,10.82
2019-03-22T04:34:03.135Z,10.86
2019-03-22T04:34:29.242Z,10.74
2019-03-22T04:34:55.377Z,10.72
2019-03-22T04:35:21.531Z,10.71
2019-03-22T04:35:47.692Z,10.75
2019-03-22T04:36:13.855Z,10.87
2019-03-22T04:36:40.028Z,10.79
2019-03-22T04:37:06.171Z,10.87
2019-03-22T04:37:32.276Z,10.84
2019-03-22T04:37:58.415Z,10.81
2019-03-22T04:38:24.524Z,10.86
2019-03-22T04:38:50.660Z,10.82
2019-03-22T04:39:16.803Z,10.89
2019-03-22T04:39:42.917Z,10.78
2019-03-22T04:40:09.050Z,10.79
2019-03-22T04:40:35.159Z,10.84
2019-03-22T04:41:01.270Z,10.81
2019-03-22T04:41:27.382Z,10.86
2019-03-22T04:41:53.526Z,10.82
2019-03-22T04:42:19.662Z,10.86
2019-03-22T04:42:45.805Z,10.84
2019-03-22T04:43:11.908Z,10.79
2019-03-22T04:43:38.010Z,10.72
2019-03-22T04:44:04.118Z,10.72
2019-03-22T04:44:30.229Z,10.71
2019-03-22T04:44:56.398Z,10.67
2019-03-22T04:45:22.515Z,10.63
2019-03-22T04:45:48.644Z,10.67
2019-03-22T04:46:14.747Z,10.67
2019-03-22T04:46:40.861Z,10.67
2019-03-22T04:47:07.004Z,10.63
2019-03-22T04:47:33.114Z,10.72
2019-03-22T04:48:00.213Z,10.71
2019-03-22T04:48:26.383Z,10.71
2019-03-22T04:48:52.467Z,10.68
2019-03-22T04:49:18.578Z,10.68
2019-03-22T04:49:44.681Z,10.67
2019-03-22T04:50:10.792Z,10.61
2019-03-22T04:50:36.899Z,10.72
2019-03-22T04:51:03.074Z,10.67
2019-03-22T04:51:29.175Z,10.69
2019-03-22T04:51:55.293Z,10.71
2019-03-22T04:52:21.394Z,10.61
2019-03-22T04:52:47.535Z,10.68
2019-03-22T04:53:13.641Z,10.69
2019-03-22T04:53:40.742Z,10.69
2019-03-22T04:54:06.854Z,10.69
2019-03-22T04:54:32.959Z,10.68
2019-03-22T04:54:59.067Z,10.64
2019-03-22T04:55:25.173Z,10.6
2019-03-22T04:55:51.280Z,10.67
2019-03-22T04:56:17.390Z,10.61
2019-03-22T04:56:43.534Z,10.67
2019-03-22T04:57:09.672Z,10.69
2019-03-22T04:57:35.817Z,10.64
2019-03-22T04:58:01.916Z,10.75
2019-03-22T04:58:28.023Z,10.69
2019-03-22T04:58:54.133Z,10.69
2019-03-22T04:59:22.247Z,10.75
2019-03-22T04:59:48.354Z,10.71
2019-03-22T05:00:14.459Z,10.68
2019-03-22T05:00:40.563Z,10.61
2019-03-22T05:01:06.703Z,10.61
2019-03-22T05:01:32.878Z,10.72
2019-03-22T05:01:59.011Z,10.75
2019-03-22T05:02:25.135Z,10.71
2019-03-22T05:02:51.275Z,10.74
2019-03-22T05:03:17.394Z,10.75
2019-03-22T05:03:43.567Z,10.76
2019-03-22T05:04:09.868Z,10.74
2019-03-22T05:04:35.995Z,10.79
2019-03-22T05:05:02.168Z,10.79
2019-03-22T05:05:28.296Z,10.76
2019-03-22T05:05:54.411Z,10.81
2019-03-22T05:06:20.574Z,10.76
2019-03-22T05:06:46.684Z,10.81
2019-03-22T05:07:12.793Z,10.86
2019-03-22T05:07:38.901Z,10.86
2019-03-22T05:08:05.019Z,10.82
2019-03-22T05:08:31.119Z,10.79
2019-03-22T05:08:57.240Z,10.81
2019-03-22T05:09:23.348Z,10.86
2019-03-22T05:09:49.464Z,10.93
2019-03-22T05:10:15.566Z,10.84
2019-03-22T05:10:41.674Z,10.86
2019-03-22T05:11:07.790Z,10.86
2019-03-22T05:11:33.896Z,10.86
2019-03-22T05:12:00.032Z,10.86
2019-03-22T05:12:26.149Z,10.84
2019-03-22T05:12:52.253Z,10.86
2019-03-22T05:13:18.359Z,10.84
2019-03-22T05:13:44.470Z,10.84
2019-03-22T05:14:10.606Z,10.96
2019-03-22T05:14:36.750Z,10.86
2019-03-22T05:15:02.864Z,10.87
2019-03-22T05:15:29.002Z,10.82
2019-03-22T05:15:55.106Z,10.87
2019-03-22T05:16:21.218Z,10.94
2019-03-22T05:16:47.377Z,10.9
2019-03-22T05:17:13.542Z,10.81
2019-03-22T05:17:39.650Z,10.84
2019-03-22T05:18:05.764Z,10.74
2019-03-22T05:18:31.873Z,10.75
2019-03-22T05:18:58.968Z,10.74
2019-03-22T05:19:25.080Z,10.68
2019-03-22T05:19:51.222Z,10.72
2019-03-22T05:20:17.360Z,10.71
2019-03-22T05:20:43.438Z,10.72
2019-03-22T05:21:09.547Z,10.64
2019-03-22T05:21:35.649Z,10.69
2019-03-22T05:22:01.764Z,10.61
2019-03-22T05:22:27.901Z,10.64
2019-03-22T05:22:54.012Z,10.68
2019-03-22T05:23:20.121Z,10.67
2019-03-22T05:23:46.233Z,10.64
2019-03-22T05:24:12.358Z,10.64
2019-03-22T05:24:39.327Z,10.67
2019-03-22T05:25:05.550Z,10.64
2019-03-22T05:25:31.652Z,10.64
2019-03-22T05:25:57.764Z,10.67
2019-03-22T05:26:23.868Z,10.68
2019-03-22T05:26:49.979Z,10.68
2019-03-22T05:27:16.114Z,10.69
2019-03-22T05:27:42.222Z,10.71
2019-03-22T05:28:08.393Z,10.75
2019-03-22T05:28:34.500Z,10.78
2019-03-22T05:29:00.610Z,10.71
2019-03-22T05:29:30.688Z,10.75
2019-03-22T05:29:54.797Z,10.72
2019-03-22T05:30:20.911Z,10.75
2019-03-22T05:30:47.022Z,10.69
2019-03-22T05:31:13.151Z,10.67
2019-03-22T05:31:39.259Z,10.78
2019-03-22T05:32:05.374Z,10.68
2019-03-22T05:32:31.477Z,10.67
2019-03-22T05:32:57.611Z,10.61
2019-03-22T05:33:24.181Z,10.67
2019-03-22T05:33:50.288Z,10.64
2019-03-22T05:34:16.387Z,10.61
2019-03-22T05:34:42.530Z,10.72
2019-03-22T05:35:08.664Z,10.72
2019-03-22T05:35:34.776Z,10.68
2019-03-22T05:36:00.882Z,10.71
2019-03-22T05:36:26.996Z,10.64
2019-03-22T05:36:53.103Z,10.63
2019-03-22T05:37:19.242Z,10.64
2019-03-22T05:37:45.352Z,10.67
2019-03-22T05:38:11.457Z,10.61
2019-03-22T05:38:37.566Z,10.67